sensor_id;sensor_type;location;lat;lon;timestamp;pressure;altitude;pressure_sealevel;temperature;humidity
80624;BME280;70269;44.768;9.600;2023-06-10T00:00:25;97179.63;;;16.13;91.38
80624;BME280;70269;44.768;9.600;2023-06-10T00:02:51;97179.69;;;16.18;90.78
80624;BME280;70269;44.768;9.600;2023-06-10T00:05:16;97183.56;;;16.23;90.71
80624;BME280;70269;44.768;9.600;2023-06-10T00:07:46;97187.03;;;16.18;90.69
80624;BME280;70269;44.768;9.600;2023-06-10T00:10:13;97182.38;;;16.13;90.58
80624;BME280;70269;44.768;9.600;2023-06-10T00:12:38;97178.13;;;16.23;90.17
80624;BME280;70269;44.768;9.600;2023-06-10T00:15:06;97179.63;;;16.13;90.35
80624;BME280;70269;44.768;9.600;2023-06-10T00:17:32;97178.56;;;16.14;89.96
80624;BME280;70269;44.768;9.600;2023-06-10T00:19:58;97168.69;;;16.08;90.18
80624;BME280;70269;44.768;9.600;2023-06-10T00:22:24;97176.28;;;16.06;90.10
80624;BME280;70269;44.768;9.600;2023-06-10T00:24:55;97169.13;;;16.00;90.15
80624;BME280;70269;44.768;9.600;2023-06-10T00:27:22;97164.75;;;15.99;89.68
80624;BME280;70269;44.768;9.600;2023-06-10T00:29:47;97165.09;;;16.03;88.77
80624;BME280;70269;44.768;9.600;2023-06-10T00:32:13;97164.00;;;16.04;88.84
80624;BME280;70269;44.768;9.600;2023-06-10T00:34:38;97164.84;;;16.04;88.82
80624;BME280;70269;44.768;9.600;2023-06-10T00:37:04;97167.22;;;16.01;90.04
80624;BME280;70269;44.768;9.600;2023-06-10T00:39:30;97162.34;;;16.03;89.27
80624;BME280;70269;44.768;9.600;2023-06-10T00:41:55;97161.28;;;16.04;89.80
80624;BME280;70269;44.768;9.600;2023-06-10T00:44:21;97155.41;;;16.17;89.14
80624;BME280;70269;44.768;9.600;2023-06-10T00:46:46;97159.38;;;16.04;89.74
80624;BME280;70269;44.768;9.600;2023-06-10T00:49:12;97154.88;;;16.15;89.23
80624;BME280;70269;44.768;9.600;2023-06-10T00:51:38;97157.34;;;16.16;89.25
80624;BME280;70269;44.768;9.600;2023-06-10T00:54:05;97159.69;;;16.08;90.22
80624;BME280;70269;44.768;9.600;2023-06-10T00:56:33;97162.91;;;16.53;86.93
80624;BME280;70269;44.768;9.600;2023-06-10T00:59:01;97159.41;;;16.31;88.78
80624;BME280;70269;44.768;9.600;2023-06-10T01:01:28;97158.84;;;16.29;88.98
80624;BME280;70269;44.768;9.600;2023-06-10T01:03:54;97159.78;;;16.18;88.99
80624;BME280;70269;44.768;9.600;2023-06-10T01:06:38;97156.13;;;16.29;88.74
80624;BME280;70269;44.768;9.600;2023-06-10T01:14:47;97148.28;;;15.89;89.92
80624;BME280;70269;44.768;9.600;2023-06-10T01:17:14;97151.22;;;15.83;90.87
80624;BME280;70269;44.768;9.600;2023-06-10T01:19:42;97148.72;;;15.81;90.58
80624;BME280;70269;44.768;9.600;2023-06-10T01:22:09;97149.56;;;15.82;90.14
80624;BME280;70269;44.768;9.600;2023-06-10T01:24:36;97153.88;;;15.77;90.43
80624;BME280;70269;44.768;9.600;2023-06-10T01:27:12;97144.00;;;15.71;90.89
80624;BME280;70269;44.768;9.600;2023-06-10T01:29:50;97145.91;;;15.71;90.88
80624;BME280;70269;44.768;9.600;2023-06-10T01:32:34;97149.63;;;15.65;91.20
80624;BME280;70269;44.768;9.600;2023-06-10T01:35:03;97157.50;;;15.61;91.92
80624;BME280;70269;44.768;9.600;2023-06-10T01:37:31;97154.94;;;15.76;90.85
80624;BME280;70269;44.768;9.600;2023-06-10T01:39:58;97162.22;;;15.71;90.84
80624;BME280;70269;44.768;9.600;2023-06-10T01:42:24;97162.16;;;15.66;91.03
80624;BME280;70269;44.768;9.600;2023-06-10T01:44:59;97162.66;;;15.63;91.35
80624;BME280;70269;44.768;9.600;2023-06-10T01:47:25;97153.06;;;15.77;90.30
80624;BME280;70269;44.768;9.600;2023-06-10T01:49:51;97157.03;;;15.69;91.04
80624;BME280;70269;44.768;9.600;2023-06-10T01:52:17;97152.75;;;15.73;90.44
80624;BME280;70269;44.768;9.600;2023-06-10T01:54:43;97139.88;;;15.69;91.02
80624;BME280;70269;44.768;9.600;2023-06-10T01:57:09;97141.34;;;15.76;90.91
80624;BME280;70269;44.768;9.600;2023-06-10T01:59:35;97140.50;;;15.76;91.12
80624;BME280;70269;44.768;9.600;2023-06-10T02:02:02;97141.28;;;15.71;90.75
80624;BME280;70269;44.768;9.600;2023-06-10T02:04:28;97138.56;;;15.71;90.43
80624;BME280;70269;44.768;9.600;2023-06-10T02:06:53;97133.28;;;15.65;90.77
80624;BME280;70269;44.768;9.600;2023-06-10T02:09:21;97137.84;;;15.59;91.29
80624;BME280;70269;44.768;9.600;2023-06-10T02:11:46;97128.28;;;15.57;91.53
80624;BME280;70269;44.768;9.600;2023-06-10T02:14:12;97126.13;;;15.59;91.33
80624;BME280;70269;44.768;9.600;2023-06-10T02:16:37;97133.16;;;15.55;91.33
80624;BME280;70269;44.768;9.600;2023-06-10T02:19:04;97130.44;;;15.55;91.38
80624;BME280;70269;44.768;9.600;2023-06-10T02:21:32;97126.63;;;15.56;91.70
80624;BME280;70269;44.768;9.600;2023-06-10T02:23:57;97136.13;;;15.53;91.62
80624;BME280;70269;44.768;9.600;2023-06-10T02:26:23;97127.72;;;15.55;91.38
80624;BME280;70269;44.768;9.600;2023-06-10T02:28:51;97123.41;;;15.59;91.34
80624;BME280;70269;44.768;9.600;2023-06-10T02:31:17;97120.69;;;15.59;91.88
80624;BME280;70269;44.768;9.600;2023-06-10T02:33:44;97133.78;;;15.62;91.65
80624;BME280;70269;44.768;9.600;2023-06-10T02:36:10;97132.16;;;15.61;91.59
80624;BME280;70269;44.768;9.600;2023-06-10T02:38:41;97131.28;;;15.55;91.94
80624;BME280;70269;44.768;9.600;2023-06-10T02:41:07;97132.16;;;15.61;91.79
80624;BME280;70269;44.768;9.600;2023-06-10T02:43:33;97129.16;;;15.62;91.61
80624;BME280;70269;44.768;9.600;2023-06-10T02:45:59;97128.84;;;15.59;91.69
80624;BME280;70269;44.768;9.600;2023-06-10T02:48:24;97123.72;;;15.62;91.44
80624;BME280;70269;44.768;9.600;2023-06-10T02:50:50;97131.28;;;15.55;92.14
80624;BME280;70269;44.768;9.600;2023-06-10T02:53:25;97133.63;;;15.52;92.66
80624;BME280;70269;44.768;9.600;2023-06-10T02:55:57;97126.72;;;15.61;91.65
80624;BME280;70269;44.768;9.600;2023-06-10T02:58:22;97121.28;;;15.61;91.37
80624;BME280;70269;44.768;9.600;2023-06-10T03:00:49;97123.22;;;15.65;90.63
80624;BME280;70269;44.768;9.600;2023-06-10T03:03:14;97128.97;;;15.69;90.77
80624;BME280;70269;44.768;9.600;2023-06-10T03:05:52;97129.56;;;15.71;90.67
80624;BME280;70269;44.768;9.600;2023-06-10T03:08:19;97128.00;;;15.80;88.86
80624;BME280;70269;44.768;9.600;2023-06-10T03:10:45;97133.69;;;15.73;90.01
80624;BME280;70269;44.768;9.600;2023-06-10T03:13:15;97129.25;;;15.67;90.99
80624;BME280;70269;44.768;9.600;2023-06-10T03:15:40;97128.66;;;15.65;91.81
80624;BME280;70269;44.768;9.600;2023-06-10T03:18:09;97128.66;;;15.65;91.24
80624;BME280;70269;44.768;9.600;2023-06-10T03:20:35;97125.63;;;15.62;91.28
80624;BME280;70269;44.768;9.600;2023-06-10T03:23:06;97128.84;;;15.59;90.84
80624;BME280;70269;44.768;9.600;2023-06-10T03:25:33;97119.81;;;15.53;90.95
80624;BME280;70269;44.768;9.600;2023-06-10T03:27:58;97129.09;;;15.57;91.39
80624;BME280;70269;44.768;9.600;2023-06-10T03:30:24;97125.91;;;15.60;91.07
80624;BME280;70269;44.768;9.600;2023-06-10T03:32:50;97128.63;;;15.60;91.01
80624;BME280;70269;44.768;9.600;2023-06-10T03:35:18;97127.66;;;15.71;90.18
80624;BME280;70269;44.768;9.600;2023-06-10T03:37:45;97131.44;;;15.70;89.66
80624;BME280;70269;44.768;9.600;2023-06-10T03:40:11;97130.97;;;15.73;89.40
80624;BME280;70269;44.768;9.600;2023-06-10T03:42:39;97128.97;;;15.69;89.43
80624;BME280;70269;44.768;9.600;2023-06-10T03:45:06;97123.47;;;15.64;90.20
80624;BME280;70269;44.768;9.600;2023-06-10T03:47:34;97134.41;;;15.69;90.22
80624;BME280;70269;44.768;9.600;2023-06-10T03:50:03;97131.63;;;15.64;90.49
80624;BME280;70269;44.768;9.600;2023-06-10T03:52:30;97131.63;;;15.64;90.16
80624;BME280;70269;44.768;9.600;2023-06-10T03:54:56;97136.06;;;15.70;89.50
80624;BME280;70269;44.768;9.600;2023-06-10T03:57:22;97130.00;;;15.63;90.30
80624;BME280;70269;44.768;9.600;2023-06-10T03:59:47;97128.84;;;15.59;90.48
80624;BME280;70269;44.768;9.600;2023-06-10T04:02:13;97132.06;;;15.56;91.09
80624;BME280;70269;44.768;9.600;2023-06-10T04:04:38;97126.38;;;15.57;90.94
80624;BME280;70269;44.768;9.600;2023-06-10T04:07:04;97130.50;;;15.60;90.49
80624;BME280;70269;44.768;9.600;2023-06-10T04:09:30;97131.69;;;15.69;90.07
80624;BME280;70269;44.768;9.600;2023-06-10T04:11:56;97131.63;;;15.64;90.11
80624;BME280;70269;44.768;9.600;2023-06-10T04:14:22;97128.09;;;15.63;90.26
80624;BME280;70269;44.768;9.600;2023-06-10T04:16:47;97133.28;;;15.65;90.17
80624;BME280;70269;44.768;9.600;2023-06-10T04:19:13;97131.41;;;15.65;89.21
80624;BME280;70269;44.768;9.600;2023-06-10T04:21:39;97127.53;;;15.61;89.84
80624;BME280;70269;44.768;9.600;2023-06-10T04:24:04;97130.50;;;15.60;89.92
80624;BME280;70269;44.768;9.600;2023-06-10T04:26:31;97128.03;;;15.58;89.98
80624;BME280;70269;44.768;9.600;2023-06-10T04:28:56;97141.06;;;15.56;90.15
80624;BME280;70269;44.768;9.600;2023-06-10T04:31:22;97144.38;;;15.58;90.16
80624;BME280;70269;44.768;9.600;2023-06-10T04:33:48;97131.81;;;15.57;90.83
80624;BME280;70269;44.768;9.600;2023-06-10T04:36:14;97138.63;;;15.55;90.43
80624;BME280;70269;44.768;9.600;2023-06-10T04:38:40;97136.97;;;15.54;90.68
80624;BME280;70269;44.768;9.600;2023-06-10T04:41:07;97138.63;;;15.55;90.58
80624;BME280;70269;44.768;9.600;2023-06-10T04:43:34;97128.03;;;15.58;90.17
80624;BME280;70269;44.768;9.600;2023-06-10T04:46:00;97131.34;;;15.60;90.44
80624;BME280;70269;44.768;9.600;2023-06-10T04:48:27;97133.16;;;15.55;90.39
80624;BME280;70269;44.768;9.600;2023-06-10T04:50:53;97141.66;;;15.58;90.29
80624;BME280;70269;44.768;9.600;2023-06-10T04:53:19;97143.53;;;15.58;90.29
80624;BME280;70269;44.768;9.600;2023-06-10T04:55:46;97139.44;;;15.55;90.54
80624;BME280;70269;44.768;9.600;2023-06-10T04:58:12;97143.53;;;15.58;90.58
80624;BME280;70269;44.768;9.600;2023-06-10T05:00:37;97140.56;;;15.59;90.83
80624;BME280;70269;44.768;9.600;2023-06-10T05:03:03;97146.31;;;15.63;90.44
80624;BME280;70269;44.768;9.600;2023-06-10T05:05:28;97141.16;;;15.61;90.59
80624;BME280;70269;44.768;9.600;2023-06-10T05:07:54;97146.78;;;15.55;91.37
80624;BME280;70269;44.768;9.600;2023-06-10T05:10:20;97143.88;;;15.61;90.48
80624;BME280;70269;44.768;9.600;2023-06-10T05:12:46;97153.13;;;15.60;90.38
80624;BME280;70269;44.768;9.600;2023-06-10T05:15:11;97149.81;;;15.58;91.40
80624;BME280;70269;44.768;9.600;2023-06-10T05:17:37;97152.59;;;15.63;90.58
80624;BME280;70269;44.768;9.600;2023-06-10T05:20:03;97138.97;;;15.63;90.39
80624;BME280;70269;44.768;9.600;2023-06-10T05:22:29;97143.06;;;15.61;89.81
80624;BME280;70269;44.768;9.600;2023-06-10T05:24:55;97143.88;;;15.61;89.63
80624;BME280;70269;44.768;9.600;2023-06-10T05:27:20;97138.44;;;15.61;90.12
80624;BME280;70269;44.768;9.600;2023-06-10T05:29:47;97127.53;;;15.61;89.09
80624;BME280;70269;44.768;9.600;2023-06-10T05:32:13;97133.53;;;15.63;90.14
80624;BME280;70269;44.768;9.600;2023-06-10T05:34:38;97133.59;;;15.68;89.50
80624;BME280;70269;44.768;9.600;2023-06-10T05:37:04;97136.06;;;15.70;89.80
80624;BME280;70269;44.768;9.600;2023-06-10T05:39:31;97135.06;;;15.76;89.73
80624;BME280;70269;44.768;9.600;2023-06-10T05:41:57;97140.00;;;15.79;89.71
80624;BME280;70269;44.768;9.600;2023-06-10T05:44:24;97134.38;;;15.86;89.53
80624;BME280;70269;44.768;9.600;2023-06-10T05:46:50;97131.97;;;15.89;89.44
80624;BME280;70269;44.768;9.600;2023-06-10T05:49:16;97138.47;;;15.88;89.75
80624;BME280;70269;44.768;9.600;2023-06-10T05:51:41;97137.47;;;15.94;90.33
80624;BME280;70269;44.768;9.600;2023-06-10T05:54:07;97140.00;;;16.01;89.62
80624;BME280;70269;44.768;9.600;2023-06-10T05:56:33;97142.47;;;16.02;89.18
80624;BME280;70269;44.768;9.600;2023-06-10T05:58:58;97140.03;;;16.06;89.02
80624;BME280;70269;44.768;9.600;2023-06-10T06:01:24;97134.44;;;16.17;88.86
80624;BME280;70269;44.768;9.600;2023-06-10T06:03:50;97141.97;;;16.32;88.02
80624;BME280;70269;44.768;9.600;2023-06-10T06:06:15;97138.13;;;16.28;87.85
80624;BME280;70269;44.768;9.600;2023-06-10T06:08:41;97149.28;;;16.27;88.90
80624;BME280;70269;44.768;9.600;2023-06-10T06:11:07;97152.28;;;16.30;87.98
80624;BME280;70269;44.768;9.600;2023-06-10T06:13:32;97144.69;;;16.32;87.94
80624;BME280;70269;44.768;9.600;2023-06-10T06:15:58;97150.97;;;16.33;87.95
80624;BME280;70269;44.768;9.600;2023-06-10T06:18:24;97150.16;;;16.32;88.46
80624;BME280;70269;44.768;9.600;2023-06-10T06:20:50;97151.25;;;16.36;88.32
80624;BME280;70269;44.768;9.600;2023-06-10T06:23:16;97142.78;;;16.33;87.96
80624;BME280;70269;44.768;9.600;2023-06-10T06:25:41;97143.91;;;16.37;88.24
80624;BME280;70269;44.768;9.600;2023-06-10T06:28:10;97156.22;;;16.39;87.65
80624;BME280;70269;44.768;9.600;2023-06-10T06:30:35;97154.28;;;16.35;88.94
80624;BME280;70269;44.768;9.600;2023-06-10T06:33:01;97154.06;;;16.41;88.10
80624;BME280;70269;44.768;9.600;2023-06-10T06:35:27;97159.03;;;16.49;87.63
80624;BME280;70269;44.768;9.600;2023-06-10T06:37:52;97149.47;;;16.47;86.50
80624;BME280;70269;44.768;9.600;2023-06-10T06:40:24;97152.50;;;16.50;85.75
80624;BME280;70269;44.768;9.600;2023-06-10T06:42:50;97158.75;;;16.46;86.15
80624;BME280;70269;44.768;9.600;2023-06-10T06:45:28;97155.19;;;16.45;86.83
80624;BME280;70269;44.768;9.600;2023-06-10T06:47:54;97156.00;;;16.46;87.10
80624;BME280;70269;44.768;9.600;2023-06-10T06:50:21;97155.47;;;16.49;86.73
80624;BME280;70269;44.768;9.600;2023-06-10T06:52:46;97154.97;;;16.52;87.73
80624;BME280;70269;44.768;9.600;2023-06-10T06:55:12;97162.75;;;16.60;86.99
80624;BME280;70269;44.768;9.600;2023-06-10T06:57:37;97158.41;;;16.64;86.65
80624;BME280;70269;44.768;9.600;2023-06-10T07:00:04;97154.56;;;16.60;89.26
80624;BME280;70269;44.768;9.600;2023-06-10T07:02:29;97153.56;;;16.71;87.64
80624;BME280;70269;44.768;9.600;2023-06-10T07:04:57;97162.59;;;16.77;87.21
80624;BME280;70269;44.768;9.600;2023-06-10T07:07:24;97161.16;;;16.69;87.11
80624;BME280;70269;44.768;9.600;2023-06-10T07:09:49;97166.69;;;16.79;87.54
80624;BME280;70269;44.768;9.600;2023-06-10T07:12:15;97163.44;;;16.77;87.66
80624;BME280;70269;44.768;9.600;2023-06-10T07:14:41;97159.84;;;16.50;89.39
80624;BME280;70269;44.768;9.600;2023-06-10T07:17:06;97161.47;;;16.46;89.53
80624;BME280;70269;44.768;9.600;2023-06-10T07:19:32;97159.25;;;16.43;90.44
80624;BME280;70269;44.768;9.600;2023-06-10T07:21:58;97166.47;;;16.54;90.43
80624;BME280;70269;44.768;9.600;2023-06-10T07:24:23;97163.94;;;16.47;91.06
80624;BME280;70269;44.768;9.600;2023-06-10T07:26:50;97161.56;;;16.56;90.62
80624;BME280;70269;44.768;9.600;2023-06-10T07:29:16;97162.19;;;16.63;89.34
80624;BME280;70269;44.768;9.600;2023-06-10T07:31:41;97162.34;;;16.78;88.98
80624;BME280;70269;44.768;9.600;2023-06-10T07:34:07;97156.84;;;16.73;89.15
80624;BME280;70269;44.768;9.600;2023-06-10T07:36:33;97164.47;;;16.71;89.87
80624;BME280;70269;44.768;9.600;2023-06-10T07:38:59;97162.91;;;16.80;89.06
80624;BME280;70269;44.768;9.600;2023-06-10T07:41:24;97159.66;;;16.83;88.82
80624;BME280;70269;44.768;9.600;2023-06-10T07:43:54;97159.69;;;16.88;87.73
80624;BME280;70269;44.768;9.600;2023-06-10T07:46:21;97167.94;;;16.93;86.48
80624;BME280;70269;44.768;9.600;2023-06-10T07:48:47;97154.31;;;16.98;86.92
80624;BME280;70269;44.768;9.600;2023-06-10T07:51:12;97148.34;;;17.02;86.48
80624;BME280;70269;44.768;9.600;2023-06-10T07:53:38;97158.19;;;17.03;85.06
80624;BME280;70269;44.768;9.600;2023-06-10T07:56:03;97155.47;;;17.03;85.87
80624;BME280;70269;44.768;9.600;2023-06-10T07:58:29;97153.00;;;17.01;86.38
80624;BME280;70269;44.768;9.600;2023-06-10T08:00:54;97155.97;;;16.99;86.59
80624;BME280;70269;44.768;9.600;2023-06-10T08:03:20;97153.78;;;16.96;86.72
80624;BME280;70269;44.768;9.600;2023-06-10T08:05:45;97157.38;;;17.02;87.47
80624;BME280;70269;44.768;9.600;2023-06-10T08:08:12;97149.00;;;17.14;83.48
80624;BME280;70269;44.768;9.600;2023-06-10T08:10:38;97148.44;;;17.17;84.90
80624;BME280;70269;44.768;9.600;2023-06-10T08:13:04;97150.41;;;17.21;83.62
80624;BME280;70269;44.768;9.600;2023-06-10T08:15:30;97156.72;;;17.27;82.91
80624;BME280;70269;44.768;9.600;2023-06-10T08:17:55;97159.50;;;17.32;83.89
80624;BME280;70269;44.768;9.600;2023-06-10T08:20:22;97152.41;;;17.36;84.66
80624;BME280;70269;44.768;9.600;2023-06-10T08:22:47;97155.09;;;17.31;83.44
80624;BME280;70269;44.768;9.600;2023-06-10T08:25:13;97148.56;;;17.32;84.32
80624;BME280;70269;44.768;9.600;2023-06-10T08:27:38;97159.47;;;17.27;83.82
80624;BME280;70269;44.768;9.600;2023-06-10T08:30:04;97156.50;;;17.33;84.40
80624;BME280;70269;44.768;9.600;2023-06-10T08:32:30;97160.94;;;17.45;86.73
80624;BME280;70269;44.768;9.600;2023-06-10T08:34:56;97154.09;;;17.47;86.09
80624;BME280;70269;44.768;9.600;2023-06-10T08:37:21;97159.78;;;17.40;86.36
80624;BME280;70269;44.768;9.600;2023-06-10T08:39:47;97153.03;;;17.48;84.92
80624;BME280;70269;44.768;9.600;2023-06-10T08:44:55;97150.31;;;18.00;85.04
80624;BME280;70269;44.768;9.600;2023-06-10T08:47:23;97155.41;;;17.76;85.57
80624;BME280;70269;44.768;9.600;2023-06-10T08:49:49;97158.16;;;17.82;84.22
80624;BME280;70269;44.768;9.600;2023-06-10T08:52:17;97154.59;;;17.81;87.08
80624;BME280;70269;44.768;9.600;2023-06-10T08:54:54;97154.38;;;17.88;86.94
80624;BME280;70269;44.768;9.600;2023-06-10T08:57:22;97148.69;;;18.09;85.38
80624;BME280;70269;44.768;9.600;2023-06-10T08:59:49;97147.13;;;18.34;84.65
80624;BME280;70269;44.768;9.600;2023-06-10T09:02:15;97150.78;;;18.65;81.62
80624;BME280;70269;44.768;9.600;2023-06-10T09:04:44;97155.97;;;18.76;77.64
80624;BME280;70269;44.768;9.600;2023-06-10T09:07:12;97153.53;;;18.85;77.45
80624;BME280;70269;44.768;9.600;2023-06-10T09:09:42;97159.03;;;19.00;76.21
80624;BME280;70269;44.768;9.600;2023-06-10T09:12:08;97150.00;;;18.99;79.04
80624;BME280;70269;44.768;9.600;2023-06-10T09:14:33;97150.53;;;18.91;77.48
80624;BME280;70269;44.768;9.600;2023-06-10T09:16:59;97155.72;;;18.78;81.33
80624;BME280;70269;44.768;9.600;2023-06-10T09:19:28;97150.78;;;18.85;79.84
80624;BME280;70269;44.768;9.600;2023-06-10T09:21:54;97149.44;;;18.97;78.59
80624;BME280;70269;44.768;9.600;2023-06-10T09:24:23;97155.44;;;18.74;77.92
80624;BME280;70269;44.768;9.600;2023-06-10T09:26:49;97150.25;;;18.98;77.86
80624;BME280;70269;44.768;9.600;2023-06-10T09:29:16;97152.44;;;19.06;79.70
80624;BME280;70269;44.768;9.600;2023-06-10T09:31:43;97157.38;;;19.19;76.60
80624;BME280;70269;44.768;9.600;2023-06-10T09:34:14;97150.22;;;19.33;77.21
80624;BME280;70269;44.768;9.600;2023-06-10T09:36:41;97152.41;;;19.26;68.60
80624;BME280;70269;44.768;9.600;2023-06-10T09:39:16;97156.81;;;19.22;70.05
80624;BME280;70269;44.768;9.600;2023-06-10T09:41:43;97157.09;;;19.06;70.75
80624;BME280;70269;44.768;9.600;2023-06-10T09:44:18;97162.84;;;19.09;74.25
80624;BME280;70269;44.768;9.600;2023-06-10T09:46:48;97156.78;;;19.32;73.66
80624;BME280;70269;44.768;9.600;2023-06-10T09:49:16;97156.78;;;19.43;75.47
80624;BME280;70269;44.768;9.600;2023-06-10T09:51:55;97165.00;;;19.58;74.28
80624;BME280;70269;44.768;9.600;2023-06-10T09:54:21;97156.97;;;19.92;75.13
80624;BME280;70269;44.768;9.600;2023-06-10T09:56:56;97159.25;;;19.54;74.77
80624;BME280;70269;44.768;9.600;2023-06-10T09:59:30;97155.69;;;19.38;75.60
80624;BME280;70269;44.768;9.600;2023-06-10T10:01:57;97154.31;;;19.51;76.99
80624;BME280;70269;44.768;9.600;2023-06-10T10:04:24;97154.00;;;19.73;74.67
80624;BME280;70269;44.768;9.600;2023-06-10T10:06:50;97156.97;;;19.92;74.69
80624;BME280;70269;44.768;9.600;2023-06-10T10:09:16;97156.47;;;19.79;75.76
80624;BME280;70269;44.768;9.600;2023-06-10T10:11:43;97148.69;;;20.02;73.39
80624;BME280;70269;44.768;9.600;2023-06-10T10:14:09;97157.47;;;20.04;72.90
80624;BME280;70269;44.768;9.600;2023-06-10T10:16:41;97151.97;;;20.04;73.29
80624;BME280;70269;44.768;9.600;2023-06-10T10:19:15;97142.59;;;20.15;73.62
80624;BME280;70269;44.768;9.600;2023-06-10T10:21:54;97136.06;;;20.11;73.01
80624;BME280;70269;44.768;9.600;2023-06-10T10:24:23;97148.22;;;20.44;73.41
80624;BME280;70269;44.768;9.600;2023-06-10T10:26:54;97148.28;;;20.29;71.33
80624;BME280;70269;44.768;9.600;2023-06-10T10:29:31;97149.31;;;20.48;72.34
80624;BME280;70269;44.768;9.600;2023-06-10T10:31:59;97155.00;;;20.56;71.13
80624;BME280;70269;44.768;9.600;2023-06-10T10:37:07;97163.50;;;20.60;72.54
80624;BME280;70269;44.768;9.600;2023-06-10T10:39:34;97149.22;;;20.09;73.06
80624;BME280;70269;44.768;9.600;2023-06-10T10:42:02;97142.81;;;20.29;73.17
80624;BME280;70269;44.768;9.600;2023-06-10T10:44:29;97149.91;;;20.40;72.09
80624;BME280;70269;44.768;9.600;2023-06-10T10:46:56;97145.09;;;20.06;74.95
80624;BME280;70269;44.768;9.600;2023-06-10T10:49:22;97139.91;;;20.05;73.53
80624;BME280;70269;44.768;9.600;2023-06-10T10:54:37;97141.78;;;20.14;71.97
80624;BME280;70269;44.768;9.600;2023-06-10T10:57:20;97139.50;;;20.32;73.31
80624;BME280;70269;44.768;9.600;2023-06-10T11:04:58;97124.47;;;20.73;69.39
80624;BME280;70269;44.768;9.600;2023-06-10T11:07:25;97130.25;;;20.67;71.88
80624;BME280;70269;44.768;9.600;2023-06-10T11:10:03;97127.94;;;20.84;71.18
80624;BME280;70269;44.768;9.600;2023-06-10T11:12:51;97123.00;;;21.15;68.75
80624;BME280;70269;44.768;9.600;2023-06-10T11:15:27;97116.63;;;21.24;65.92
80624;BME280;70269;44.768;9.600;2023-06-10T11:18:27;97132.59;;;21.22;66.72
80624;BME280;70269;44.768;9.600;2023-06-10T11:20:53;97121.34;;;21.14;70.54
80624;BME280;70269;44.768;9.600;2023-06-10T11:29:02;97113.25;;;20.98;71.20
80624;BME280;70269;44.768;9.600;2023-06-10T11:31:32;97108.78;;;21.08;71.50
80624;BME280;70269;44.768;9.600;2023-06-10T11:34:01;97103.34;;;21.03;71.78
80624;BME280;70269;44.768;9.600;2023-06-10T11:36:27;97099.53;;;20.65;73.22
80624;BME280;70269;44.768;9.600;2023-06-10T11:38:58;97104.16;;;20.69;74.41
80624;BME280;70269;44.768;9.600;2023-06-10T11:41:25;97101.03;;;20.81;72.23
80624;BME280;70269;44.768;9.600;2023-06-10T11:43:53;97095.66;;;20.99;71.31
80624;BME280;70269;44.768;9.600;2023-06-10T11:46:21;97096.75;;;21.04;72.45
80624;BME280;70269;44.768;9.600;2023-06-10T11:48:53;97090.63;;;21.17;71.91
80624;BME280;70269;44.768;9.600;2023-06-10T11:51:19;97091.16;;;21.14;72.46
80624;BME280;70269;44.768;9.600;2023-06-10T11:53:49;97091.56;;;21.31;72.76
80624;BME280;70269;44.768;9.600;2023-06-10T11:56:21;97079.69;;;21.07;72.27
80624;BME280;70269;44.768;9.600;2023-06-10T11:58:56;97084.00;;;21.18;72.26
80624;BME280;70269;44.768;9.600;2023-06-10T12:01:25;97082.00;;;21.23;73.11
80624;BME280;70269;44.768;9.600;2023-06-10T12:04:05;97075.91;;;21.31;71.17
80624;BME280;70269;44.768;9.600;2023-06-10T12:06:45;97078.63;;;21.03;72.19
80624;BME280;70269;44.768;9.600;2023-06-10T12:09:14;97076.88;;;21.17;71.42
80624;BME280;70269;44.768;9.600;2023-06-10T12:11:41;97074.09;;;21.22;71.41
80624;BME280;70269;44.768;9.600;2023-06-10T12:14:07;97083.44;;;21.68;70.47
80624;BME280;70269;44.768;9.600;2023-06-10T12:16:32;97084.03;;;21.13;72.49
80624;BME280;70269;44.768;9.600;2023-06-10T12:19:05;97079.13;;;21.05;72.26
80624;BME280;70269;44.768;9.600;2023-06-10T12:21:33;97083.91;;;21.28;69.73
80624;BME280;70269;44.768;9.600;2023-06-10T12:24:08;97079.91;;;21.15;70.30
80624;BME280;70269;44.768;9.600;2023-06-10T12:34:19;97073.81;;;20.89;66.30
80624;BME280;70269;44.768;9.600;2023-06-10T12:36:49;97069.09;;;20.95;67.82
80624;BME280;70269;44.768;9.600;2023-06-10T12:39:15;97068.22;;;20.99;69.90
80624;BME280;70269;44.768;9.600;2023-06-10T12:41:40;97066.53;;;21.04;67.67
80624;BME280;70269;44.768;9.600;2023-06-10T12:44:12;97065.94;;;21.07;65.10
80624;BME280;70269;44.768;9.600;2023-06-10T12:46:37;97061.88;;;21.33;68.11
80624;BME280;70269;44.768;9.600;2023-06-10T12:49:03;97063.19;;;21.41;64.99
80624;BME280;70269;44.768;9.600;2023-06-10T12:51:28;97064.75;;;21.47;64.87
80624;BME280;70269;44.768;9.600;2023-06-10T12:53:54;97062.63;;;21.38;66.10
80624;BME280;70269;44.768;9.600;2023-06-10T12:56:20;97062.06;;;21.42;65.76
80624;BME280;70269;44.768;9.600;2023-06-10T12:58:47;97064.69;;;21.52;66.33
80624;BME280;70269;44.768;9.600;2023-06-10T13:01:13;97056.78;;;21.45;66.03
80624;BME280;70269;44.768;9.600;2023-06-10T13:03:39;97056.25;;;21.43;65.44
80624;BME280;70269;44.768;9.600;2023-06-10T13:06:05;97059.13;;;21.33;69.22
80624;BME280;70269;44.768;9.600;2023-06-10T13:08:31;97061.34;;;21.55;69.73
80624;BME280;70269;44.768;9.600;2023-06-10T13:10:57;97053.41;;;21.77;68.71
80624;BME280;70269;44.768;9.600;2023-06-10T13:13:23;97048.31;;;21.65;71.02
80624;BME280;70269;44.768;9.600;2023-06-10T13:15:49;97050.53;;;21.63;70.12
80624;BME280;70269;44.768;9.600;2023-06-10T13:18:15;97046.72;;;21.83;69.67
80624;BME280;70269;44.768;9.600;2023-06-10T13:20:43;97048.34;;;21.60;69.34
80624;BME280;70269;44.768;9.600;2023-06-10T13:23:09;97041.03;;;21.74;68.29
80624;BME280;70269;44.768;9.600;2023-06-10T13:25:34;97035.03;;;21.91;66.22
80624;BME280;70269;44.768;9.600;2023-06-10T13:28:00;97036.88;;;22.19;65.56
80624;BME280;70269;44.768;9.600;2023-06-10T13:30:26;97029.09;;;22.08;65.36
80624;BME280;70269;44.768;9.600;2023-06-10T13:32:52;97028.44;;;21.92;68.46